Time;durP1;ratioP1;P1;durP2;ratioP2;P2;SDS_P1;SDS_P2;PMS_P1;PMS_P2;Temp;Humidity;BMP_temperature;BMP_pressure;BME280_temperature;BME280_humidity;BME280_pressure;Samples;Min_cycle;Max_cycle;Signal;HPM_P1;HPM_P2
2022/05/25 00:01:38;;;;;;;1.67;0.70;;;;;;;12.97;94.04;100130.47;21075229;28;20102;-70
2022/05/25 00:11:39;;;;;;;3.05;0.70;;;;;;;13.02;93.74;100133.84;21075819;28;20056;-70
2022/05/25 00:21:41;;;;;;;2.05;0.70;;;;;;;12.88;96.08;100148.28;21074532;28;20515;-70
2022/05/25 00:31:42;;;;;;;2.85;0.80;;;;;;;12.85;94.77;100146.63;21073546;28;20090;-70
2022/05/25 00:41:44;;;;;;;3.42;0.80;;;;;;;12.82;93.94;100151.97;21073317;28;20082;-70
2022/05/25 00:51:50;;;;;;;2.72;0.90;;;;;;;12.93;94.88;100162.16;21072158;28;20106;-71
2022/05/25 01:01:52;;;;;;;1.35;0.70;;;;;;;12.92;95.62;100163.91;21165371;22;20085;-68
2022/05/25 01:12:36;;;;;;;2.33;0.88;;;;;;;12.95;96.80;100174.34;21153056;28;20081;-67
2022/05/25 01:23:07;;;;;;;2.90;0.80;;;;;;;12.95;97.04;100184.88;21141727;28;20704;-66
2022/05/25 01:33:23;;;;;;;2.92;0.70;;;;;;;12.92;95.68;100203.34;21152338;28;20415;-66
2022/05/25 01:43:38;;;;;;;3.08;0.80;;;;;;;12.80;96.18;100215.06;21152136;28;20056;-66
2022/05/25 01:53:45;;;;;;;1.13;0.70;;;;;;;12.73;95.27;100208.25;21152245;28;20044;-66
2022/05/25 02:14:19;;;;;;;1.58;0.95;;;;;;;12.59;96.94;100216.50;21150257;28;20048;-66
2022/05/25 02:24:28;;;;;;;1.80;1.02;;;;;;;12.50;96.88;100215.88;21161305;28;20518;-66
2022/05/25 02:34:31;;;;;;;3.80;0.90;;;;;;;12.29;99.19;100225.19;21166300;28;20047;-67
2022/05/25 02:44:33;;;;;;;3.17;1.10;;;;;;;12.20;98.42;100228.03;21165752;28;20048;-67
2022/05/25 02:54:35;;;;;;;2.42;0.98;;;;;;;12.05;100.00;100230.16;21166575;28;20147;-66
2022/05/25 03:04:37;;;;;;;2.50;1.10;;;;;;;11.90;100.00;100243.66;21163685;28;20048;-66
2022/05/25 03:14:40;;;;;;;2.65;1.10;;;;;;;11.78;100.00;100249.13;21163676;28;20488;-66
2022/05/25 03:24:43;;;;;;;2.80;1.30;;;;;;;11.66;100.00;100257.28;21162788;28;20052;-66
2022/05/25 03:34:47;;;;;;;3.25;1.50;;;;;;;11.44;100.00;100267.38;21159946;28;20122;-66
2022/05/25 03:44:49;;;;;;;5.03;1.83;;;;;;;11.30;100.00;100275.53;21161394;28;20051;-66
2022/05/25 03:54:51;;;;;;;4.80;2.05;;;;;;;11.16;100.00;100290.66;21160307;28;20112;-66
2022/05/25 04:05:07;;;;;;;3.35;1.77;;;;;;;11.15;100.00;100291.56;21159042;28;20191;-66
2022/05/25 04:15:11;;;;;;;4.75;1.65;;;;;;;11.21;100.00;100309.78;21087296;28;20051;-66
2022/05/25 04:25:17;;;;;;;4.90;1.53;;;;;;;11.17;100.00;100316.00;21072680;28;20070;-66
2022/05/25 04:35:20;;;;;;;3.90;1.65;;;;;;;11.29;100.00;100321.00;21071084;28;20044;-66
2022/05/25 04:45:25;;;;;;;3.55;1.70;;;;;;;12.15;100.00;100324.41;21070259;28;20052;-67
2022/05/25 05:05:48;;;;;;;5.93;1.60;;;;;;;12.37;99.36;100349.28;21068581;28;20423;-67
2022/05/25 05:15:52;;;;;;;5.90;1.80;;;;;;;12.57;98.10;100361.91;21068673;28;20040;-68
2022/05/25 05:25:53;;;;;;;7.97;1.65;;;;;;;12.80;99.17;100377.97;21067746;28;20044;-68
2022/05/25 05:36:19;;;;;;;2.90;1.33;;;;;;;13.07;97.35;100391.28;21068294;28;20058;-68
2022/05/25 05:46:21;;;;;;;2.80;1.17;;;;;;;13.23;95.28;100397.91;21052395;28;20402;-67
2022/05/25 05:56:23;;;;;;;3.67;0.95;;;;;;;13.47;92.25;100404.28;21066057;28;20044;-67
2022/05/25 06:06:25;;;;;;;5.50;1.05;;;;;;;13.84;89.84;100411.97;21066268;28;20159;-68
2022/05/25 06:26:47;;;;;;;3.67;0.90;;;;;;;14.55;85.54;100423.91;21066343;28;20412;-67
2022/05/25 06:36:49;;;;;;;6.43;1.10;;;;;;;14.87;84.79;100433.41;21065368;28;20078;-68
2022/05/25 06:46:51;;;;;;;4.10;1.08;;;;;;;15.20;81.61;100450.81;21065649;28;20462;-70
2022/05/25 06:56:53;;;;;;;6.03;1.13;;;;;;;15.16;81.52;100454.47;21064803;28;20048;-68
2022/05/25 07:07:02;;;;;;;4.88;1.00;;;;;;;15.56;76.47;100460.06;21088714;28;20091;-68
2022/05/25 07:17:04;;;;;;;5.30;1.13;;;;;;;15.73;73.35;100477.16;21131631;28;20043;-68
2022/05/25 07:27:06;;;;;;;2.88;1.10;;;;;;;16.04;72.26;100464.53;21083509;28;20105;-68
2022/05/25 07:37:12;;;;;;;3.13;1.20;;;;;;;16.29;70.35;100471.53;21100117;28;20417;-65
2022/05/25 07:47:14;;;;;;;2.55;1.00;;;;;;;16.54;70.59;100482.91;21109278;28;20150;-65
2022/05/25 07:57:16;;;;;;;3.92;1.00;;;;;;;16.80;63.92;100483.66;21140463;28;20413;-69
2022/05/25 08:07:19;;;;;;;5.15;1.15;;;;;;;16.74;63.23;100478.63;21152569;28;20557;-70
2022/05/25 08:17:21;;;;;;;4.50;1.30;;;;;;;17.49;60.79;100457.88;21087095;28;20048;-68
2022/05/25 08:27:22;;;;;;;2.63;0.90;;;;;;;17.60;56.15;100465.34;21065857;28;20052;-67
2022/05/25 08:37:24;;;;;;;2.72;0.88;;;;;;;17.76;60.56;100465.53;21064408;28;20059;-70
2022/05/25 08:47:25;;;;;;;2.97;0.80;;;;;;;17.85;60.21;100478.38;21064227;28;20056;-71
2022/05/25 08:57:32;;;;;;;5.43;0.90;;;;;;;18.40;59.37;100462.63;21063359;28;20059;-73
2022/05/25 09:08:21;;;;;;;6.32;0.90;;;;;;;18.84;53.72;100462.31;21062277;28;20101;-70
2022/05/25 09:18:26;;;;;;;3.50;0.63;;;;;;;19.54;46.77;100453.41;21132636;28;20075;-71
2022/05/25 09:28:42;;;;;;;3.53;0.60;;;;;;;18.55;45.34;100476.94;21144602;28;20043;-72
2022/05/25 09:38:53;;;;;;;4.57;0.80;;;;;;;19.12;47.83;100488.34;21145416;28;20056;-70
2022/05/25 09:49:02;;;;;;;1.52;0.45;;;;;;;19.75;44.13;100482.50;21144984;28;20055;-69
2022/05/25 09:59:10;;;;;;;2.17;0.52;;;;;;;20.05;40.78;100475.56;21144598;28;20408;-67
2022/05/25 10:09:24;;;;;;;3.15;0.70;;;;;;;19.80;44.09;100480.47;21127080;28;20105;-67
2022/05/25 10:19:25;;;;;;;1.73;0.60;;;;;;;19.97;43.62;100475.09;21058932;28;20048;-67
2022/05/25 10:36:45;;;;;;;5.10;0.77;;;;;;;21.27;42.27;100455.38;21057292;28;20109;-67
2022/05/25 10:39:54;;;;;;;1.20;0.50;;;;;;;21.40;40.68;100462.66;21059984;28;20041;-68
2022/05/25 10:49:55;;;;;;;2.42;0.40;;;;;;;21.23;39.65;100451.16;21074077;28;20454;-66
2022/05/25 11:00:05;;;;;;;3.10;0.68;;;;;;;20.74;43.09;100454.03;21072529;28;20110;-66
2022/05/25 11:10:32;;;;;;;2.03;0.50;;;;;;;20.25;46.11;100462.03;21073966;28;20040;-69
2022/05/25 11:21:03;;;;;;;1.83;0.52;;;;;;;19.92;45.28;100466.53;21125646;28;20059;-69
2022/05/25 11:31:25;;;;;;;3.08;0.93;;;;;;;21.03;41.24;100451.47;21147176;28;20125;-70
2022/05/25 11:41:29;;;;;;;2.25;0.40;;;;;;;21.61;40.24;100449.88;21146682;28;20059;-69
2022/05/25 11:51:40;;;;;;;;;;;;;;;21.49;38.22;100448.78;21147241;28;20450;-67
2022/05/25 12:01:53;;;;;;;3.63;0.50;;;;;;;21.06;40.54;100453.09;21145685;28;19924;-69
2022/05/25 12:12:20;;;;;;;4.32;0.65;;;;;;;20.70;40.02;100433.00;21143342;28;20074;-69
2022/05/25 12:22:30;;;;;;;2.83;0.50;;;;;;;21.66;40.48;100440.63;21145251;28;20063;-69
2022/05/25 12:32:32;;;;;;;2.88;0.50;;;;;;;21.23;39.04;100440.53;21143388;28;20105;-69
2022/05/25 12:42:40;;;;;;;2.30;0.40;;;;;;;21.30;39.11;100440.16;21077977;28;20047;-69
2022/05/25 12:52:43;;;;;;;1.95;0.40;;;;;;;21.13;38.18;100450.00;21057225;28;20048;-69
2022/05/25 13:02:44;;;;;;;1.95;0.43;;;;;;;20.68;38.90;100454.34;21056741;28;20043;-69
2022/05/25 13:12:50;;;;;;;2.35;0.30;;;;;;;20.75;38.51;100452.22;21055091;28;20078;-69
2022/05/25 13:22:54;;;;;;;2.40;0.38;;;;;;;20.83;38.37;100439.31;21055607;28;20146;-69
2022/05/25 13:33:04;;;;;;;2.92;0.60;;;;;;;21.58;37.62;100434.91;21135265;28;20047;-69
2022/05/25 13:43:12;;;;;;;1.90;0.35;;;;;;;22.02;35.04;100433.97;21137758;28;20055;-69
2022/05/25 13:53:33;;;;;;;2.45;0.45;;;;;;;22.14;34.06;100435.03;21137953;28;20043;-69
2022/05/25 14:03:35;;;;;;;3.03;0.40;;;;;;;22.26;34.72;100431.59;21135988;28;20100;-67
2022/05/25 14:13:40;;;;;;;2.13;0.57;;;;;;;22.27;32.95;100428.81;21135035;28;20055;-73
2022/05/25 14:23:43;;;;;;;1.33;0.30;;;;;;;21.78;34.39;100431.88;21154119;28;20039;-68
2022/05/25 14:33:45;;;;;;;1.77;0.80;;;;;;;22.20;34.14;100424.84;21152386;28;20557;-67
2022/05/25 14:43:48;;;;;;;2.95;0.35;;;;;;;22.11;33.59;100422.75;21131702;28;20147;-69
2022/05/25 14:53:49;;;;;;;2.33;0.40;;;;;;;22.35;33.71;100432.81;21069128;28;20070;-67
2022/05/25 15:03:52;;;;;;;1.92;0.30;;;;;;;21.70;34.57;100433.28;21064054;28;20054;-68
2022/05/25 15:24:35;;;;;;;3.55;0.60;;;;;;;22.19;33.68;100439.13;21150696;28;20500;-67
2022/05/25 15:34:37;;;;;;;2.50;0.60;;;;;;;22.57;33.06;100430.47;21147215;28;20039;-67
2022/05/25 15:44:38;;;;;;;1.63;0.47;;;;;;;22.38;31.61;100445.97;21146745;28;20105;-68
2022/05/25 15:54:43;;;;;;;1.67;0.40;;;;;;;22.23;33.67;100443.31;21146292;28;20042;-67
2022/05/25 16:04:45;;;;;;;2.42;0.50;;;;;;;22.93;32.88;100448.56;21145553;28;20043;-66
2022/05/25 16:14:51;;;;;;;1.67;0.40;;;;;;;22.49;33.83;100446.97;21080027;28;20412;-65
2022/05/25 16:24:54;;;;;;;3.60;0.50;;;;;;;22.66;32.34;100447.69;21143702;28;20047;-65
2022/05/25 16:34:55;;;;;;;1.23;0.40;;;;;;;22.47;34.42;100450.69;21109336;28;20408;-66
2022/05/25 16:44:57;;;;;;;1.98;0.43;;;;;;;22.16;34.52;100443.78;21056122;28;20489;-66
2022/05/25 16:54:58;;;;;;;1.90;0.40;;;;;;;22.06;34.24;100455.97;21055106;28;20044;-66
2022/05/25 17:05:02;;;;;;;0.82;0.30;;;;;;;22.01;35.31;100466.91;21055006;28;20051;-66
2022/05/25 17:15:05;;;;;;;7.40;0.70;;;;;;;21.97;36.05;100473.38;21055233;28;20056;-65
2022/05/25 17:25:07;;;;;;;2.25;0.40;;;;;;;21.49;37.35;100473.59;21053882;28;20117;-65
2022/05/25 17:35:09;;;;;;;2.15;0.60;;;;;;;21.00;38.76;100502.25;21051321;28;20059;-66
2022/05/25 17:45:11;;;;;;;4.93;0.73;;;;;;;21.08;38.74;100508.00;21052400;28;20059;-66
2022/05/25 17:55:13;;;;;;;3.58;0.70;;;;;;;21.38;38.60;100518.69;21050437;28;20056;-65
2022/05/25 18:05:15;;;;;;;3.75;0.40;;;;;;;21.34;38.15;100533.13;21050769;28;20462;-65
2022/05/25 18:15:28;;;;;;;0.98;0.30;;;;;;;21.41;38.52;100544.28;21133920;28;20408;-69
2022/05/25 18:25:30;;;;;;;4.10;0.50;;;;;;;21.02;39.45;100553.56;21134629;28;20476;-68
2022/05/25 18:35:33;;;;;;;0.90;0.40;;;;;;;20.61;40.77;100569.22;21135732;28;20523;-67
2022/05/25 18:45:35;;;;;;;1.95;0.52;;;;;;;20.16;44.04;100582.16;21063416;28;20063;-67
2022/05/25 18:55:37;;;;;;;2.38;0.50;;;;;;;19.66;43.75;100590.97;21078567;28;20052;-68
2022/05/25 19:05:38;;;;;;;2.20;0.60;;;;;;;19.23;45.63;100592.19;21094317;28;20040;-67
2022/05/25 19:15:40;;;;;;;1.55;0.60;;;;;;;18.96;47.52;100600.53;21110917;28;20040;-67
2022/05/25 19:25:50;;;;;;;2.15;0.73;;;;;;;18.59;48.39;100613.72;21102063;28;20051;-67
2022/05/25 19:35:56;;;;;;;2.85;0.70;;;;;;;18.33;49.61;100630.81;21098249;28;20043;-68
2022/05/25 19:45:58;;;;;;;1.52;0.50;;;;;;;18.05;50.79;100639.97;21105770;28;20093;-68
2022/05/25 19:56:00;;;;;;;2.25;0.63;;;;;;;17.76;53.80;100664.16;21101115;28;20407;-67
2022/05/25 20:06:02;;;;;;;3.75;1.17;;;;;;;17.47;57.34;100683.84;21078659;28;20056;-68
2022/05/25 20:16:04;;;;;;;1.42;0.50;;;;;;;17.04;60.03;100686.38;21098919;28;20047;-67
2022/05/25 20:26:06;;;;;;;1.83;0.60;;;;;;;16.79;60.67;100704.09;21147438;28;20113;-67
2022/05/25 20:36:10;;;;;;;3.80;0.80;;;;;;;16.57;63.86;100720.66;21147566;28;20528;-71
2022/05/25 20:46:12;;;;;;;4.18;1.98;;;;;;;16.37;65.53;100717.88;21148102;28;20066;-65
2022/05/25 20:56:14;;;;;;;5.53;1.60;;;;;;;16.29;65.99;100725.19;21082866;28;20048;-65
2022/05/25 21:06:17;;;;;;;7.75;1.45;;;;;;;16.35;67.26;100730.28;21061220;28;20058;-66
2022/05/25 21:16:18;;;;;;;3.13;0.90;;;;;;;16.45;65.73;100738.75;21115959;28;20047;-65
2022/05/25 21:26:20;;;;;;;2.47;1.30;;;;;;;16.48;67.38;100742.16;21143701;28;20054;-66
2022/05/25 21:36:22;;;;;;;1.75;0.52;;;;;;;16.57;65.82;100741.81;21141766;28;20048;-65
2022/05/25 21:56:44;;;;;;;2.35;1.08;;;;;;;16.62;65.13;100752.22;21074324;28;20139;-65
2022/05/25 22:06:45;;;;;;;3.35;0.90;;;;;;;16.56;67.72;100757.75;21109568;28;20050;-65
2022/05/25 22:16:50;;;;;;;2.58;1.00;;;;;;;16.53;67.59;100757.84;21149057;28;20052;-65
2022/05/25 22:26:51;;;;;;;;;;;;;;;16.48;67.04;100773.88;21150210;28;20146;-65
2022/05/25 22:36:53;;;;;;;1.60;0.50;;;;;;;16.48;67.81;100778.28;21152377;28;19920;-65
2022/05/25 22:46:54;;;;;;;3.97;0.77;;;;;;;16.36;68.88;100788.34;21165961;28;20465;-65
2022/05/25 22:56:56;;;;;;;2.08;0.73;;;;;;;16.14;71.39;100795.25;21165439;28;20047;-66
2022/05/25 23:07:03;;;;;;;1.15;0.60;;;;;;;16.05;71.89;100801.72;21163737;28;20055;-67
2022/05/25 23:17:12;;;;;;;2.20;0.80;;;;;;;16.08;73.23;100806.88;21164051;28;20044;-66
2022/05/25 23:27:13;;;;;;;3.55;1.45;;;;;;;16.12;73.40;100805.03;21162917;28;20145;-66
2022/05/25 23:37:16;;;;;;;3.70;0.93;;;;;;;16.11;74.17;100805.94;21161923;28;20047;-67
2022/05/25 23:47:17;;;;;;;4.30;0.60;;;;;;;16.10;74.79;100815.66;21160416;28;20051;-66
2022/05/25 23:57:19;;;;;;;1.95;0.60;;;;;;;16.16;74.41;100810.16;21160815;28;20077;-66
